Main page
METAR-TAF:

METAR-TAF

Airports :

Beja Airbase

Beja, Portugal

latitude: 38-04-40N, longitude: 007-55-57W, elevation: 193 m

Current weather observation

The report was made 49 minutes ago, at 15:00 UTC
Wind 6 kt from the South, varying between East/Southeast and South/Southwest
Temperature 17°C
Humidity 52%
Pressure 1015 hPa
Visibility 10 km or more
Broken clouds at a height of 4200 ft

METAR: LPBJ 281500Z 17006KT 120V200 9999 BKN042 17/07 Q1015

Time: 15:49 (15:49 UTC)

Forecast

The report was made 4 hours and 40 minutes ago, at 11:09 UTC
Forecast valid from 28 at 12 UTC to 29 at 12 UTC
Wind 2 kt from variable directions
Visibility 10 km or more
no clouds below 1500 m and no cumulonimbus

TAF: LPBJ 281109Z 2812/2912 VRB02KT CAVOK

Weather observations and forecasts of more than 4000 airports (METAR and TAF reports).

The available stations are represented by yellow and red dots on the map.

Hover mouse over dot to see the name of the station.

Then click to see weather observations and forecasts.

To change the map : click on the green buttons with a black cross to zoom in, on the green button with a dash to zoom out, or on the green arrows for adjacent maps.


METAR-TAF: